Time;durP1;ratioP1;P1;durP2;ratioP2;P2;SDS_P1;SDS_P2;PMS_P1;PMS_P2;Temp;Humidity;BMP_temperature;BMP_pressure;BME280_temperature;BME280_humidity;BME280_pressure;Samples;Min_cycle;Max_cycle;Signal;HPM_P1;HPM_P2
2023/04/04 00:01:18;;;;;;;4.00;1.85;;;5.70;59.40;;;;;;5021865;28;20072;-73
2023/04/04 00:03:43;;;;;;;3.30;1.70;;;5.70;59.40;;;;;;5014186;28;20139;-74
2023/04/04 00:06:09;;;;;;;4.78;1.60;;;5.70;59.40;;;;;;5033466;28;20041;-74
2023/04/04 00:08:35;;;;;;;4.30;1.80;;;5.60;59.40;;;;;;5052177;28;20530;-74
2023/04/04 00:11:01;;;;;;;3.58;1.77;;;5.60;59.50;;;;;;5016145;28;20045;-75
2023/04/04 00:13:26;;;;;;;3.33;2.00;;;5.60;59.50;;;;;;4999711;28;20110;-75
2023/04/04 00:15:53;;;;;;;2.90;1.42;;;5.60;59.50;;;;;;5032487;28;20045;-75
2023/04/04 00:18:19;;;;;;;5.30;1.70;;;5.60;59.60;;;;;;5058347;28;20038;-75
2023/04/04 00:20:45;;;;;;;4.32;1.80;;;5.60;59.70;;;;;;5015970;28;20180;-75
2023/04/04 00:23:11;;;;;;;3.05;1.45;;;5.50;59.70;;;;;;5022966;28;20116;-75
2023/04/04 00:25:37;;;;;;;4.30;1.50;;;5.50;59.70;;;;;;5016304;28;20048;-75
2023/04/04 00:28:03;;;;;;;3.33;1.70;;;5.40;59.70;;;;;;5015848;28;20046;-75
2023/04/04 00:30:30;;;;;;;2.15;1.20;;;5.50;59.80;;;;;;5016025;28;20157;-75
2023/04/04 00:32:56;;;;;;;3.05;1.60;;;5.40;59.90;;;;;;5032598;28;20049;-75
2023/04/04 00:35:22;;;;;;;2.80;1.30;;;5.40;60.00;;;;;;5032785;28;20049;-75
2023/04/04 00:37:48;;;;;;;2.00;1.40;;;5.40;60.00;;;;;;5048784;28;20116;-75
2023/04/04 00:40:14;;;;;;;2.88;1.42;;;5.40;60.10;;;;;;5015873;28;20073;-75
2023/04/04 00:42:40;;;;;;;2.70;1.33;;;5.40;60.10;;;;;;5036181;28;20040;-75
2023/04/04 00:45:07;;;;;;;3.40;1.42;;;5.30;60.10;;;;;;5027460;28;20040;-75
2023/04/04 00:47:33;;;;;;;2.75;1.55;;;5.30;60.20;;;;;;5035947;28;20059;-75
2023/04/04 00:50:00;;;;;;;3.78;1.52;;;5.30;60.30;;;;;;5019018;28;20055;-75
2023/04/04 00:52:26;;;;;;;2.97;1.33;;;5.30;60.30;;;;;;5052325;28;20040;-75
2023/04/04 00:54:54;;;;;;;3.33;1.55;;;5.30;60.40;;;;;;5023018;28;20507;-75
2023/04/04 00:57:20;;;;;;;3.72;1.77;;;5.20;60.50;;;;;;5065249;28;20091;-75
2023/04/04 00:59:46;;;;;;;3.83;1.60;;;5.20;60.50;;;;;;5032725;28;20037;-75
2023/04/04 01:02:12;;;;;;;3.55;1.60;;;5.20;60.50;;;;;;5015437;28;20037;-75
2023/04/04 01:04:37;;;;;;;3.03;1.58;;;5.20;60.60;;;;;;5019412;28;20132;-75
2023/04/04 01:07:03;;;;;;;3.22;1.70;;;5.20;60.60;;;;;;5056407;28;20435;-76
2023/04/04 01:09:29;;;;;;;3.22;1.60;;;5.20;60.70;;;;;;5031075;28;20060;-77
2023/04/04 01:11:56;;;;;;;3.20;1.85;;;5.10;60.80;;;;;;5015269;28;20095;-76
2023/04/04 01:14:22;;;;;;;4.85;1.77;;;5.10;60.90;;;;;;5020269;28;20063;-76
2023/04/04 01:16:50;;;;;;;3.90;1.90;;;5.10;60.90;;;;;;5035184;28;20045;-76
2023/04/04 01:19:25;;;;;;;3.17;1.67;;;5.10;60.90;;;;;;5035086;28;20029;-76
2023/04/04 01:21:52;;;;;;;2.60;1.70;;;5.10;60.80;;;;;;5051659;28;20041;-76
2023/04/04 01:24:20;;;;;;;3.35;1.75;;;5.00;60.80;;;;;;5025573;28;20033;-76
2023/04/04 01:26:46;;;;;;;3.80;1.83;;;5.00;60.80;;;;;;5011132;28;20071;-76
2023/04/04 01:29:12;;;;;;;4.95;2.25;;;5.00;61.00;;;;;;5065123;28;20041;-76
2023/04/04 01:32:10;;;;;;;2.95;1.85;;;5.00;61.00;;;;;;5015187;28;20044;-76
2023/04/04 01:34:45;;;;;;;2.80;1.52;;;5.00;61.20;;;;;;5007878;28;20469;-76
2023/04/04 01:37:37;;;;;;;2.72;1.45;;;4.90;61.20;;;;;;5031206;28;20049;-76
2023/04/04 01:40:21;;;;;;;5.53;1.88;;;4.90;61.10;;;;;;5012830;28;20527;-76
2023/04/04 01:42:48;;;;;;;3.97;2.00;;;4.90;61.20;;;;;;5049611;28;20052;-76
2023/04/04 01:45:13;;;;;;;4.45;2.03;;;4.90;61.30;;;;;;5030879;28;20041;-76
2023/04/04 01:47:40;;;;;;;4.00;2.03;;;4.80;61.30;;;;;;5031487;28;20052;-76
2023/04/04 01:50:10;;;;;;;4.20;1.98;;;4.80;61.40;;;;;;5013464;28;20132;-76
2023/04/04 01:52:36;;;;;;;4.45;2.22;;;4.80;61.50;;;;;;5014812;28;20076;-73
2023/04/04 01:55:03;;;;;;;3.63;1.73;;;4.80;61.50;;;;;;5028765;28;20052;-74
2023/04/04 01:57:29;;;;;;;3.92;1.75;;;4.70;61.60;;;;;;5030809;28;20539;-74
2023/04/04 01:59:55;;;;;;;4.07;1.85;;;4.70;61.70;;;;;;5031055;28;20045;-74
2023/04/04 02:02:21;;;;;;;4.07;2.15;;;4.70;61.90;;;;;;5014869;28;20380;-75
2023/04/04 02:04:46;;;;;;;4.03;1.95;;;4.70;62.00;;;;;;5026930;28;20048;-74
2023/04/04 02:07:13;;;;;;;4.47;2.00;;;4.70;62.10;;;;;;5050956;28;20392;-74
2023/04/04 02:09:38;;;;;;;3.42;2.00;;;4.70;62.20;;;;;;5034843;28;20073;-74
2023/04/04 02:12:05;;;;;;;3.80;2.03;;;4.60;62.20;;;;;;5034616;28;20491;-74
2023/04/04 02:14:30;;;;;;;3.92;2.00;;;4.60;62.20;;;;;;5025969;28;20090;-74
2023/04/04 02:16:57;;;;;;;4.53;2.00;;;4.60;62.30;;;;;;5030745;28;20041;-74
2023/04/04 02:19:23;;;;;;;3.80;2.08;;;4.60;62.30;;;;;;5064193;28;20049;-74
2023/04/04 02:21:49;;;;;;;4.38;2.22;;;4.60;62.40;;;;;;5033498;28;20496;-74
2023/04/04 02:24:15;;;;;;;3.85;1.98;;;4.60;62.50;;;;;;5034841;28;20044;-74
2023/04/04 02:26:40;;;;;;;4.55;2.17;;;4.60;62.50;;;;;;5034975;28;20511;-74
2023/04/04 02:29:06;;;;;;;4.38;2.28;;;4.60;62.50;;;;;;5018334;28;20052;-74
2023/04/04 02:31:32;;;;;;;3.47;1.90;;;4.60;62.60;;;;;;5051175;28;20381;-74
2023/04/04 02:33:58;;;;;;;5.13;2.25;;;4.50;62.60;;;;;;5019520;28;20460;-75
2023/04/04 02:36:24;;;;;;;6.78;2.25;;;4.50;62.60;;;;;;5018332;28;20048;-75
2023/04/04 02:38:50;;;;;;;3.97;2.75;;;4.50;62.70;;;;;;5017924;28;20404;-75
2023/04/04 02:41:15;;;;;;;5.15;2.88;;;4.50;62.60;;;;;;5001713;28;20077;-75
2023/04/04 02:43:41;;;;;;;4.40;2.17;;;4.50;62.50;;;;;;5002491;28;20040;-75
2023/04/04 02:46:07;;;;;;;4.35;1.88;;;4.50;62.50;;;;;;5017900;28;20041;-75
2023/04/04 02:48:33;;;;;;;4.38;2.05;;;4.50;62.60;;;;;;5051294;28;20396;-75
2023/04/04 02:50:59;;;;;;;11.50;2.75;;;4.50;62.70;;;;;;5017609;28;20041;-75
2023/04/04 02:53:25;;;;;;;4.10;2.47;;;4.50;62.80;;;;;;5001223;28;20048;-75
2023/04/04 02:55:50;;;;;;;4.57;2.45;;;4.40;62.70;;;;;;5035750;28;20049;-74
2023/04/04 02:58:16;;;;;;;4.88;2.65;;;4.40;62.70;;;;;;5000991;28;20071;-75
2023/04/04 03:00:42;;;;;;;4.05;2.00;;;4.40;62.70;;;;;;5001250;28;20049;-76
2023/04/04 03:03:08;;;;;;;4.05;2.17;;;4.40;62.80;;;;;;5017875;28;20034;-76
2023/04/04 03:05:34;;;;;;;4.28;2.50;;;4.30;62.70;;;;;;5017357;28;20038;-75
2023/04/04 03:08:00;;;;;;;3.45;2.20;;;4.40;62.80;;;;;;5017045;28;20053;-74
2023/04/04 03:10:30;;;;;;;4.18;2.28;;;4.40;62.90;;;;;;5033881;28;20408;-75
2023/04/04 03:12:56;;;;;;;4.72;2.35;;;4.30;62.90;;;;;;5017032;28;20045;-75
2023/04/04 03:15:22;;;;;;;4.10;2.15;;;4.30;62.80;;;;;;5008356;28;20388;-75
2023/04/04 03:17:48;;;;;;;4.55;2.75;;;4.30;62.80;;;;;;5017330;28;20052;-75
2023/04/04 03:20:15;;;;;;;5.18;2.47;;;4.30;62.80;;;;;;5017329;28;20045;-76
2023/04/04 03:22:41;;;;;;;4.78;2.22;;;4.30;62.80;;;;;;5036057;28;20098;-75
2023/04/04 03:25:07;;;;;;;5.03;2.25;;;4.20;62.60;;;;;;4992676;28;20121;-75
2023/04/04 03:27:34;;;;;;;3.53;2.30;;;4.20;62.60;;;;;;5049829;28;20048;-75
2023/04/04 03:30:00;;;;;;;4.00;2.55;;;4.20;62.60;;;;;;5037696;28;20048;-75
2023/04/04 03:32:26;;;;;;;4.57;2.38;;;4.20;62.50;;;;;;5017134;28;20041;-76
2023/04/04 03:34:52;;;;;;;3.45;1.92;;;4.10;62.50;;;;;;5025195;28;20096;-75
2023/04/04 03:37:17;;;;;;;4.35;2.30;;;4.10;62.60;;;;;;5016946;28;20378;-76
2023/04/04 03:39:43;;;;;;;3.92;2.20;;;4.10;62.70;;;;;;5017140;28;20432;-76
2023/04/04 03:42:09;;;;;;;6.30;2.92;;;4.10;62.70;;;;;;5033236;28;20076;-76
2023/04/04 03:44:38;;;;;;;3.53;1.92;;;4.10;62.60;;;;;;5017848;28;20037;-76
2023/04/04 03:47:04;;;;;;;3.80;2.17;;;4.00;62.70;;;;;;5017015;28;20522;-76
2023/04/04 03:49:31;;;;;;;4.85;2.90;;;4.00;62.90;;;;;;5000489;28;20073;-76
2023/04/04 03:51:57;;;;;;;2.95;1.80;;;4.00;62.90;;;;;;5000652;28;20049;-75
2023/04/04 03:54:23;;;;;;;4.07;2.33;;;4.00;62.80;;;;;;5019341;28;20053;-75
2023/04/04 03:56:50;;;;;;;5.95;2.58;;;4.00;62.90;;;;;;5000489;28;20183;-76
2023/04/04 03:59:16;;;;;;;4.28;2.08;;;4.00;63.00;;;;;;5016753;28;20056;-76
2023/04/04 04:01:42;;;;;;;6.35;2.63;;;4.00;63.10;;;;;;5049646;28;20041;-76
2023/04/04 04:04:07;;;;;;;4.63;2.33;;;3.90;63.10;;;;;;5019792;28;20424;-76
2023/04/04 04:06:33;;;;;;;3.65;1.85;;;3.90;63.20;;;;;;5016586;28;20060;-75
2023/04/04 04:09:00;;;;;;;3.30;2.28;;;3.90;63.30;;;;;;4983924;28;20622;-75
2023/04/04 04:11:25;;;;;;;4.25;2.50;;;3.90;63.50;;;;;;5005973;28;20072;-75
2023/04/04 04:13:51;;;;;;;5.30;2.33;;;3.90;63.50;;;;;;5031103;28;20037;-76
2023/04/04 04:16:17;;;;;;;3.72;2.30;;;3.90;63.50;;;;;;4997718;28;20126;-75
2023/04/04 04:18:42;;;;;;;6.20;2.55;;;3.90;63.60;;;;;;4983437;28;20037;-74
2023/04/04 04:21:08;;;;;;;4.63;2.42;;;3.90;63.70;;;;;;4999861;28;20476;-75
2023/04/04 04:23:34;;;;;;;6.63;2.97;;;3.80;63.60;;;;;;5000021;28;20045;-75
2023/04/04 04:25:59;;;;;;;4.57;2.67;;;3.80;63.60;;;;;;5018220;28;20072;-75
2023/04/04 04:28:25;;;;;;;4.75;2.45;;;3.80;63.40;;;;;;5032591;28;20045;-75
2023/04/04 04:30:51;;;;;;;4.82;2.60;;;3.80;63.40;;;;;;5015981;28;20041;-75
2023/04/04 04:33:18;;;;;;;4.43;2.58;;;3.80;63.50;;;;;;5032408;28;20463;-75
2023/04/04 04:35:44;;;;;;;4.20;2.50;;;3.80;63.50;;;;;;5023054;28;20072;-75
2023/04/04 04:38:10;;;;;;;4.70;2.53;;;3.80;63.60;;;;;;5002757;28;20077;-75
2023/04/04 04:40:36;;;;;;;4.27;2.57;;;3.80;63.60;;;;;;5019126;28;20051;-75
2023/04/04 04:43:02;;;;;;;5.07;2.72;;;3.90;63.70;;;;;;5035627;28;20099;-75
2023/04/04 04:45:28;;;;;;;4.93;2.90;;;3.70;63.60;;;;;;5021735;28;20497;-75
2023/04/04 04:47:53;;;;;;;4.57;2.60;;;3.70;63.70;;;;;;4999326;28;20094;-76
2023/04/04 04:50:19;;;;;;;5.30;2.90;;;3.70;63.60;;;;;;5032016;28;20068;-76
2023/04/04 04:52:45;;;;;;;4.90;2.70;;;3.70;63.70;;;;;;5017153;28;20037;-75
2023/04/04 04:55:11;;;;;;;4.43;2.53;;;3.70;63.70;;;;;;5018797;28;20095;-76
2023/04/04 04:57:39;;;;;;;4.13;2.60;;;3.70;63.80;;;;;;5031224;28;20503;-76
2023/04/04 05:00:06;;;;;;;5.00;2.80;;;3.70;63.80;;;;;;4990008;28;20069;-76
2023/04/04 05:02:31;;;;;;;5.65;3.28;;;3.70;63.90;;;;;;5030903;28;20381;-76
2023/04/04 05:04:57;;;;;;;5.73;2.40;;;3.60;63.90;;;;;;5003596;28;20041;-76
2023/04/04 05:07:23;;;;;;;4.90;2.57;;;3.60;63.90;;;;;;5012090;28;20120;-76
2023/04/04 05:09:52;;;;;;;4.90;2.80;;;3.60;63.90;;;;;;4995993;28;20038;-76
2023/04/04 05:12:17;;;;;;;3.63;2.20;;;3.60;64.00;;;;;;5028947;28;20049;-76
2023/04/04 05:14:43;;;;;;;4.77;3.07;;;3.60;64.00;;;;;;4995729;28;20092;-76
2023/04/04 05:17:09;;;;;;;6.20;3.00;;;3.60;64.00;;;;;;5045515;28;20041;-76
2023/04/04 05:19:35;;;;;;;5.53;3.50;;;3.60;64.10;;;;;;5045173;28;20553;-76
2023/04/04 05:22:01;;;;;;;4.87;3.23;;;3.50;64.10;;;;;;4995847;28;20124;-76
2023/04/04 05:24:27;;;;;;;5.30;3.00;;;3.50;64.20;;;;;;5045035;28;20065;-76
2023/04/04 05:26:53;;;;;;;4.60;3.10;;;3.50;64.20;;;;;;4996070;28;20484;-76
2023/04/04 05:29:18;;;;;;;6.50;3.88;;;3.50;64.20;;;;;;4979196;28;20049;-74
2023/04/04 05:31:44;;;;;;;7.50;4.00;;;3.50;64.20;;;;;;5012116;28;20080;-75
2023/04/04 05:34:10;;;;;;;6.33;3.37;;;3.50;64.50;;;;;;4995533;28;20048;-75
2023/04/04 05:36:36;;;;;;;6.97;4.17;;;3.50;65.10;;;;;;4995355;28;20048;-75
2023/04/04 05:39:05;;;;;;;8.50;3.80;;;3.50;65.20;;;;;;4995545;28;20088;-75
2023/04/04 05:41:31;;;;;;;9.30;3.42;;;3.60;65.50;;;;;;5010602;28;20053;-75
2023/04/04 05:43:57;;;;;;;8.43;3.63;;;3.80;65.60;;;;;;4995303;28;20046;-75
2023/04/04 05:46:22;;;;;;;6.13;3.33;;;4.00;65.40;;;;;;5020846;28;20034;-75
2023/04/04 05:48:51;;;;;;;6.07;3.20;;;4.20;65.00;;;;;;5014958;28;20049;-75
2023/04/04 05:51:17;;;;;;;8.10;3.45;;;4.30;64.20;;;;;;5011876;28;20117;-73
2023/04/04 05:53:46;;;;;;;6.28;3.67;;;4.40;63.60;;;;;;5006129;28;20042;-73
2023/04/04 05:56:12;;;;;;;7.97;4.13;;;4.50;63.10;;;;;;4981423;28;20056;-73
2023/04/04 05:58:38;;;;;;;8.32;3.67;;;4.60;62.80;;;;;;5031644;28;20037;-74
2023/04/04 06:01:07;;;;;;;7.47;3.63;;;4.60;62.50;;;;;;4983035;28;20034;-74
2023/04/04 06:03:33;;;;;;;5.85;3.42;;;4.60;62.20;;;;;;5020218;28;20038;-74
2023/04/04 06:06:03;;;;;;;5.22;3.80;;;4.70;62.00;;;;;;5005328;28;20038;-73
2023/04/04 06:08:30;;;;;;;5.40;3.53;;;4.70;61.80;;;;;;5001220;28;20128;-74
2023/04/04 06:10:56;;;;;;;6.55;3.75;;;4.70;61.80;;;;;;5017443;28;20045;-74
2023/04/04 06:13:21;;;;;;;6.32;3.40;;;4.70;62.10;;;;;;5020665;28;20036;-74
2023/04/04 06:15:47;;;;;;;7.15;4.00;;;4.80;62.30;;;;;;5058631;28;20427;-74
2023/04/04 06:18:13;;;;;;;5.13;3.72;;;4.80;62.40;;;;;;5016483;28;20077;-74
2023/04/04 06:20:39;;;;;;;7.18;4.18;;;4.90;62.40;;;;;;5014013;28;20034;-74
2023/04/04 06:23:04;;;;;;;6.88;4.70;;;5.00;62.10;;;;;;4997414;28;20048;-74
2023/04/04 06:25:31;;;;;;;6.38;5.47;;;5.00;62.10;;;;;;4981041;28;20037;-74
2023/04/04 06:27:58;;;;;;;7.72;3.85;;;5.20;62.10;;;;;;5030486;28;20145;-74
2023/04/04 06:30:24;;;;;;;6.97;3.85;;;5.30;61.90;;;;;;5014042;28;20042;-74
2023/04/04 06:32:49;;;;;;;8.15;4.18;;;5.60;61.70;;;;;;5000417;28;20045;-74
2023/04/04 06:35:15;;;;;;;5.57;3.47;;;5.80;61.10;;;;;;5033408;28;20493;-75
2023/04/04 06:37:41;;;;;;;5.78;3.70;;;6.00;60.10;;;;;;5033348;28;20041;-75
2023/04/04 06:40:07;;;;;;;6.57;4.15;;;6.10;59.30;;;;;;5000909;28;20081;-75
2023/04/04 06:42:33;;;;;;;6.07;3.40;;;6.10;59.00;;;;;;5033664;28;20033;-75
2023/04/04 06:44:59;;;;;;;6.75;3.47;;;6.10;59.20;;;;;;5033615;28;20506;-75
2023/04/04 06:47:24;;;;;;;8.65;3.90;;;6.40;59.30;;;;;;5016750;28;20083;-75
2023/04/04 06:49:51;;;;;;;9.27;5.25;;;6.80;58.90;;;;;;5000845;28;20041;-75
2023/04/04 06:52:17;;;;;;;9.23;5.93;;;7.10;58.10;;;;;;5032929;28;20052;-75
2023/04/04 06:54:43;;;;;;;5.30;3.20;;;7.30;57.30;;;;;;5016538;28;20038;-75
2023/04/04 06:57:09;;;;;;;7.60;4.43;;;7.40;55.90;;;;;;5016940;28;20053;-75
2023/04/04 06:59:35;;;;;;;6.07;3.10;;;7.40;55.20;;;;;;5032863;28;20076;-75
2023/04/04 07:02:00;;;;;;;5.65;3.10;;;7.40;55.50;;;;;;5033051;28;20103;-75
2023/04/04 07:04:26;;;;;;;7.40;3.00;;;7.30;55.20;;;;;;5016576;28;20088;-75
2023/04/04 07:06:52;;;;;;;4.45;3.33;;;7.30;55.00;;;;;;4961364;28;1133483;-75
2023/04/04 07:09:18;;;;;;;6.13;2.67;;;7.20;55.10;;;;;;5017375;28;20049;-75
2023/04/04 07:11:43;;;;;;;7.50;3.17;;;7.10;55.10;;;;;;5050890;28;20045;-75
2023/04/04 07:14:09;;;;;;;6.32;3.00;;;7.10;54.80;;;;;;5051031;28;20052;-75
2023/04/04 07:16:35;;;;;;;3.92;2.55;;;7.00;55.00;;;;;;5034007;28;20053;-75
2023/04/04 07:19:01;;;;;;;3.95;2.42;;;6.90;54.90;;;;;;5050595;28;20079;-75
2023/04/04 07:21:27;;;;;;;6.90;2.90;;;6.90;55.10;;;;;;5017217;28;20033;-75
2023/04/04 07:23:53;;;;;;;8.55;3.35;;;6.80;55.10;;;;;;5017118;28;20485;-75
2023/04/04 07:26:19;;;;;;;7.32;3.05;;;6.80;54.50;;;;;;5000713;28;20041;-75
2023/04/04 07:28:44;;;;;;;8.30;2.60;;;6.80;54.30;;;;;;4984788;28;20072;-75
2023/04/04 07:31:10;;;;;;;8.73;3.15;;;6.80;54.00;;;;;;5001415;28;20041;-75
2023/04/04 07:33:36;;;;;;;6.80;2.50;;;6.80;54.10;;;;;;5000998;28;20041;-75
2023/04/04 07:36:02;;;;;;;6.65;2.65;;;6.80;54.20;;;;;;5000945;28;20050;-75
2023/04/04 07:38:28;;;;;;;6.35;3.10;;;6.80;54.40;;;;;;5000635;28;20485;-75
2023/04/04 07:40:54;;;;;;;5.35;2.55;;;6.80;54.60;;;;;;5016674;28;20099;-75
2023/04/04 07:43:20;;;;;;;5.28;2.05;;;6.80;54.80;;;;;;5062936;28;20114;-75
2023/04/04 07:45:46;;;;;;;4.75;2.45;;;6.90;55.00;;;;;;5049875;28;20037;-75
2023/04/04 07:48:11;;;;;;;5.80;2.97;;;7.00;55.10;;;;;;5048675;28;20053;-75
2023/04/04 07:50:37;;;;;;;6.78;3.80;;;7.00;55.10;;;;;;5033435;28;20137;-75
2023/04/04 07:53:03;;;;;;;4.80;2.60;;;7.20;55.60;;;;;;5042032;28;20045;-75
2023/04/04 07:55:29;;;;;;;5.80;2.40;;;7.50;55.40;;;;;;5049482;28;20503;-75
2023/04/04 07:57:55;;;;;;;3.80;2.58;;;7.80;54.80;;;;;;5029114;28;20052;-75
2023/04/04 08:00:21;;;;;;;5.13;3.05;;;8.00;54.60;;;;;;5066108;28;20037;-75
2023/04/04 08:02:55;;;;;;;7.75;2.42;;;8.30;54.00;;;;;;5066014;28;20052;-75
2023/04/04 08:05:20;;;;;;;16.37;2.80;;;8.60;54.00;;;;;;5016934;28;20041;-76
2023/04/04 08:07:46;;;;;;;6.53;2.90;;;8.90;53.60;;;;;;5014076;28;20518;-76
2023/04/04 08:10:12;;;;;;;4.82;2.42;;;9.20;52.80;;;;;;5019519;28;20036;-76
2023/04/04 08:12:38;;;;;;;6.68;1.90;;;9.50;52.60;;;;;;5036250;28;20063;-76
2023/04/04 08:15:04;;;;;;;3.97;2.20;;;9.60;50.80;;;;;;5036321;28;20037;-75
2023/04/04 08:17:30;;;;;;;4.38;2.40;;;9.70;50.60;;;;;;5031275;28;20124;-76
2023/04/04 08:19:56;;;;;;;4.78;2.03;;;10.00;50.30;;;;;;5021302;28;20124;-75
2023/04/04 08:22:22;;;;;;;4.32;2.30;;;10.20;48.40;;;;;;5058325;28;20041;-76
2023/04/04 08:24:48;;;;;;;4.80;2.13;;;10.40;46.60;;;;;;5049480;28;20038;-78
2023/04/04 08:27:14;;;;;;;3.92;1.83;;;10.60;46.50;;;;;;5067206;28;20088;-78
2023/04/04 08:29:40;;;;;;;5.38;1.98;;;10.90;44.50;;;;;;5050111;28;20447;-78
2023/04/04 08:32:07;;;;;;;4.18;2.00;;;10.90;42.30;;;;;;5032255;28;20034;-78
2023/04/04 08:34:33;;;;;;;3.70;1.80;;;10.90;41.20;;;;;;5000087;28;20041;-78
2023/04/04 08:36:59;;;;;;;3.63;1.48;;;10.80;40.50;;;;;;5019001;28;20049;-78
2023/04/04 08:39:25;;;;;;;4.60;1.75;;;10.90;40.60;;;;;;5049306;28;20459;-78
2023/04/04 08:42:06;;;;;;;5.05;2.20;;;10.90;41.10;;;;;;5049430;28;20043;-76
2023/04/04 08:44:33;;;;;;;5.32;2.08;;;11.00;40.40;;;;;;5049426;28;20033;-76
2023/04/04 08:47:01;;;;;;;5.13;1.92;;;11.00;41.10;;;;;;5062932;28;20065;-75
2023/04/04 08:49:30;;;;;;;4.30;2.08;;;11.00;40.80;;;;;;5065403;28;20045;-75
2023/04/04 08:51:58;;;;;;;5.53;1.92;;;11.00;41.40;;;;;;5009371;28;20045;-75
2023/04/04 08:54:25;;;;;;;3.92;1.88;;;11.10;41.30;;;;;;5015555;28;20045;-75
2023/04/04 08:56:51;;;;;;;3.78;1.92;;;11.00;41.30;;;;;;5046762;28;20437;-75
2023/04/04 08:59:17;;;;;;;4.72;1.88;;;11.10;42.40;;;;;;5023216;28;20103;-75
2023/04/04 09:01:44;;;;;;;4.70;2.20;;;11.20;41.90;;;;;;5033471;28;20550;-76
2023/04/04 09:04:10;;;;;;;4.35;1.83;;;11.30;41.80;;;;;;5048776;28;20523;-76
2023/04/04 09:06:36;;;;;;;5.70;2.08;;;11.50;41.40;;;;;;5038139;28;20071;-76
2023/04/04 09:09:02;;;;;;;5.85;1.67;;;11.60;40.20;;;;;;5031908;28;20443;-76
2023/04/04 09:11:31;;;;;;;4.82;1.90;;;11.60;39.90;;;;;;5055788;28;20045;-76
2023/04/04 09:13:57;;;;;;;3.90;1.73;;;11.60;39.90;;;;;;5007186;28;20045;-75
2023/04/04 09:16:23;;;;;;;3.80;1.75;;;11.70;39.70;;;;;;5011032;28;20124;-75
2023/04/04 09:18:51;;;;;;;3.80;1.90;;;11.70;39.20;;;;;;5065126;28;20485;-75
2023/04/04 09:21:18;;;;;;;4.43;1.70;;;11.60;39.80;;;;;;5036709;28;20053;-75
2023/04/04 09:23:44;;;;;;;6.63;2.03;;;11.70;40.20;;;;;;5031597;28;20044;-76
2023/04/04 09:26:12;;;;;;;5.20;1.50;;;11.70;40.00;;;;;;5009901;28;20033;-75
2023/04/04 09:28:37;;;;;;;5.32;1.60;;;11.70;40.70;;;;;;5042566;28;20423;-75
2023/04/04 09:31:06;;;;;;;4.32;1.75;;;11.80;40.70;;;;;;5041605;28;20037;-75
2023/04/04 09:33:33;;;;;;;3.75;1.52;;;11.90;39.20;;;;;;5042030;28;20044;-76
2023/04/04 09:36:06;;;;;;;4.50;1.70;;;12.00;38.80;;;;;;5025734;28;20042;-76
2023/04/04 09:38:36;;;;;;;6.85;2.05;;;12.00;38.20;;;;;;5009353;28;20558;-75
2023/04/04 09:41:04;;;;;;;4.55;1.63;;;11.90;38.10;;;;;;5041972;28;20408;-75
2023/04/04 09:43:31;;;;;;;5.53;1.75;;;12.00;39.50;;;;;;5042254;28;20042;-75
2023/04/04 09:45:59;;;;;;;3.53;1.75;;;12.10;38.50;;;;;;5025905;28;20422;-76
2023/04/04 09:48:27;;;;;;;4.78;1.63;;;12.10;37.50;;;;;;5009028;28;20056;-75
2023/04/04 09:50:53;;;;;;;3.85;2.03;;;12.00;37.50;;;;;;5041715;28;20128;-76
2023/04/04 09:53:19;;;;;;;4.05;1.90;;;12.00;37.50;;;;;;4992681;28;20029;-76
2023/04/04 09:55:50;;;;;;;4.43;2.10;;;11.90;36.60;;;;;;5042159;28;20043;-75
2023/04/04 09:58:22;;;;;;;4.35;1.95;;;11.80;37.20;;;;;;5041168;28;20061;-75
2023/04/04 10:00:50;;;;;;;5.80;1.75;;;11.80;37.50;;;;;;5010893;28;20072;-75
2023/04/04 10:03:18;;;;;;;4.72;1.58;;;11.90;37.70;;;;;;5042347;28;20041;-75
2023/04/04 10:05:45;;;;;;;4.60;2.42;;;11.90;38.00;;;;;;5025156;28;20077;-75
2023/04/04 10:08:15;;;;;;;5.63;2.05;;;12.10;37.80;;;;;;5040027;28;20048;-75
2023/04/04 10:10:46;;;;;;;3.08;1.80;;;12.10;36.70;;;;;;5041295;28;20508;-75
2023/04/04 10:13:12;;;;;;;5.78;2.15;;;12.00;36.20;;;;;;5041581;28;20045;-75
2023/04/04 10:15:37;;;;;;;4.18;1.80;;;11.80;36.50;;;;;;5042228;28;20107;-75
2023/04/04 10:18:04;;;;;;;4.53;2.25;;;11.70;36.90;;;;;;5024643;28;20049;-75
2023/04/04 10:20:32;;;;;;;4.40;1.60;;;11.70;37.00;;;;;;5008922;28;20065;-75
2023/04/04 10:22:58;;;;;;;5.00;2.20;;;11.70;37.50;;;;;;5009267;28;21621;-75
2023/04/04 10:25:24;;;;;;;3.58;1.65;;;11.80;38.70;;;;;;5041085;28;20029;-76
2023/04/04 10:27:50;;;;;;;5.97;2.33;;;11.90;39.30;;;;;;5008258;28;20040;-75
2023/04/04 10:30:16;;;;;;;4.95;1.95;;;12.10;39.30;;;;;;4992806;28;20095;-75
2023/04/04 10:33:10;;;;;;;5.13;1.88;;;12.20;39.40;;;;;;5008557;28;20721;-75
2023/04/04 10:35:38;;;;;;;3.50;2.08;;;12.40;38.80;;;;;;5041960;28;20488;-75
2023/04/04 10:38:05;;;;;;;6.20;2.00;;;12.50;38.10;;;;;;5008951;28;20042;-76
2023/04/04 10:40:36;;;;;;;3.38;1.98;;;12.60;37.10;;;;;;5025465;28;20038;-76
2023/04/04 10:43:04;;;;;;;7.22;2.58;;;12.70;36.50;;;;;;5011014;28;20041;-76
2023/04/04 10:45:37;;;;;;;4.15;1.95;;;12.70;36.40;;;;;;5045901;28;20037;-75
2023/04/04 10:48:03;;;;;;;6.18;2.17;;;12.70;37.30;;;;;;5028485;28;20033;-76
2023/04/04 10:50:32;;;;;;;5.57;2.40;;;12.80;37.50;;;;;;5028822;28;20063;-76
2023/04/04 10:53:00;;;;;;;6.20;2.38;;;12.80;36.80;;;;;;5012068;28;20136;-76
2023/04/04 10:55:28;;;;;;;5.35;2.00;;;12.60;36.60;;;;;;5028833;28;20045;-76
2023/04/04 10:57:55;;;;;;;3.08;1.95;;;12.60;36.70;;;;;;5028167;28;20045;-75
2023/04/04 11:00:25;;;;;;;4.88;2.30;;;12.30;36.90;;;;;;5045546;28;20503;-75
2023/04/04 11:02:55;;;;;;;4.85;1.92;;;12.40;36.50;;;;;;5045133;28;20044;-76
2023/04/04 11:05:36;;;;;;;5.35;2.30;;;12.30;36.20;;;;;;5012208;28;20029;-75
2023/04/04 11:08:04;;;;;;;4.45;1.88;;;12.10;36.80;;;;;;5011828;28;20060;-76
2023/04/04 11:10:34;;;;;;;5.35;2.08;;;12.00;37.30;;;;;;5045161;28;20037;-75
2023/04/04 11:13:07;;;;;;;6.10;2.35;;;12.00;37.20;;;;;;5012081;28;20033;-75
2023/04/04 11:15:58;;;;;;;4.72;2.25;;;11.90;37.40;;;;;;5044813;28;20033;-75
2023/04/04 11:18:47;;;;;;;4.70;2.38;;;11.80;37.30;;;;;;5027391;28;20041;-75
2023/04/04 11:21:18;;;;;;;4.65;2.35;;;11.80;36.70;;;;;;5006460;28;20392;-75
2023/04/04 11:23:47;;;;;;;5.63;2.47;;;11.60;37.50;;;;;;5010977;28;20033;-75
2023/04/04 11:26:17;;;;;;;6.00;2.17;;;11.50;36.80;;;;;;5044229;28;20049;-75
2023/04/04 11:28:44;;;;;;;5.63;2.13;;;11.30;36.80;;;;;;5012402;28;20052;-75
2023/04/04 11:31:17;;;;;;;5.75;2.60;;;11.30;36.70;;;;;;5044915;28;20602;-76
2023/04/04 11:34:06;;;;;;;5.05;3.00;;;11.20;36.90;;;;;;5044388;28;20057;-75
2023/04/04 11:36:39;;;;;;;5.90;2.75;;;11.10;36.30;;;;;;5011732;28;20045;-75
2023/04/04 11:39:21;;;;;;;4.22;2.25;;;11.10;38.40;;;;;;5044656;28;20390;-75
2023/04/04 11:41:51;;;;;;;5.07;2.60;;;11.20;39.00;;;;;;5044219;28;21378;-75
2023/04/04 11:44:17;;;;;;;5.85;3.20;;;11.30;38.30;;;;;;5043610;28;20048;-75
2023/04/04 11:46:44;;;;;;;3.42;2.55;;;11.30;38.30;;;;;;5043995;28;20451;-75
2023/04/04 11:49:10;;;;;;;7.80;3.03;;;11.40;37.20;;;;;;5011589;28;20061;-75
2023/04/04 11:51:39;;;;;;;3.72;2.30;;;11.30;37.10;;;;;;5011370;28;20077;-75
2023/04/04 11:54:15;;;;;;;5.45;2.58;;;11.30;36.50;;;;;;5042771;28;20049;-75
2023/04/04 11:56:44;;;;;;;4.38;2.33;;;11.30;37.10;;;;;;4995199;28;20836;-78
2023/04/04 11:59:11;;;;;;;4.95;2.55;;;11.30;36.90;;;;;;4994192;28;20041;-77
2023/04/04 12:01:38;;;;;;;6.05;2.70;;;11.30;37.10;;;;;;5026357;28;20073;-75
2023/04/04 12:04:04;;;;;;;5.90;2.83;;;11.30;37.60;;;;;;5027073;28;20065;-77
2023/04/04 12:06:36;;;;;;;4.63;2.38;;;11.30;36.60;;;;;;5043548;28;20080;-75
2023/04/04 12:09:03;;;;;;;4.68;2.30;;;11.20;36.40;;;;;;5026906;28;20073;-75
2023/04/04 12:11:36;;;;;;;6.63;2.53;;;11.10;37.10;;;;;;5010862;28;20045;-75
2023/04/04 12:14:02;;;;;;;4.55;2.33;;;11.20;36.30;;;;;;5011622;28;20033;-75
2023/04/04 12:16:28;;;;;;;6.22;2.80;;;11.10;36.20;;;;;;5043576;28;20511;-75
2023/04/04 12:19:00;;;;;;;7.45;3.28;;;10.90;36.00;;;;;;5026757;28;20448;-76
2023/04/04 12:21:25;;;;;;;6.20;2.60;;;10.90;36.90;;;;;;5043694;28;20030;-77
2023/04/04 12:23:51;;;;;;;4.90;2.28;;;10.90;36.50;;;;;;5043798;28;20041;-77
2023/04/04 12:26:18;;;;;;;4.20;2.03;;;10.90;36.60;;;;;;4978519;28;20121;-76
2023/04/04 12:28:44;;;;;;;5.25;2.78;;;10.90;36.20;;;;;;5012539;28;20056;-76
2023/04/04 12:31:12;;;;;;;5.22;2.40;;;10.80;36.60;;;;;;5043301;28;20606;-77
2023/04/04 12:33:40;;;;;;;4.57;2.38;;;10.80;36.80;;;;;;4995584;28;20108;-76
2023/04/04 12:36:06;;;;;;;5.22;2.33;;;10.80;36.90;;;;;;5026166;28;20091;-77
2023/04/04 12:38:33;;;;;;;6.13;2.60;;;10.80;37.00;;;;;;5042320;28;20392;-77
2023/04/04 12:40:59;;;;;;;5.07;2.78;;;10.80;37.70;;;;;;5027041;28;20099;-77
2023/04/04 12:43:29;;;;;;;5.68;2.75;;;10.90;37.60;;;;;;5009941;28;20507;-75
2023/04/04 12:45:56;;;;;;;5.35;2.80;;;10.90;37.60;;;;;;5031702;28;20056;-75
2023/04/04 12:48:28;;;;;;;3.95;2.47;;;10.90;37.70;;;;;;5015760;28;20037;-75
2023/04/04 12:50:59;;;;;;;5.57;2.50;;;10.80;37.50;;;;;;5032678;28;20041;-75
2023/04/04 12:53:29;;;;;;;5.93;2.50;;;10.90;38.70;;;;;;5027783;28;20396;-76